METAR Data
IDs: Format: Raw Decoded Include TAF

Data at: 0621 UTC 19 Aug 2019

KBEH 190618Z AUTO 00000KT 1 1/4SM BR CLR 18/17 A2994 RMK AO2 T01830172
KBEH 190611Z AUTO 00000KT 2SM BR CLR 19/18 A2994 RMK AO2 T01890178
KBEH 190607Z AUTO 00000KT 1SM BR CLR 18/18 A2993 RMK AO2 T01830178
KBEH 190558Z AUTO 00000KT 1/2SM FG CLR 19/18 A2994 RMK AO2 T01890183
KBEH 190553Z AUTO 00000KT 1 1/4SM BR CLR 19/18 A2994 RMK AO2 VIS 1/2V5 SLP135 T01890183 10250 20183 51009
KBEH 190550Z AUTO 00000KT 1 3/4SM BR CLR 19/18 A2994 RMK AO2
KBEH 190453Z AUTO 11003KT 4SM BR CLR 19/18 A2993 RMK AO2 SLP132 T01890178 402940183
KBEH 190353Z AUTO 00000KT 9SM CLR 19/18 A2993 RMK AO2 SLP132 T01940183
KBEH 190253Z AUTO 09003KT 10SM CLR 20/19 A2991 RMK AO2 SLP126 T02000189 53027
KBEH 190153Z AUTO 00000KT 10SM CLR 21/19 A2988 RMK AO2 SLP114 T02110189
KBEH 190053Z AUTO 30005KT 10SM CLR 23/19 A2984 RMK AO2 SLP101 T02330194
KBEH 182353Z AUTO 29003KT 10SM CLR 25/19 A2983 RMK AO2 SLP098 T02500194 10294 20233 58003
KBEH 182253Z AUTO VRB03KT 10SM CLR 26/20 A2985 RMK AO2 SLP103 T02560200
KBEH 182153Z AUTO 30009KT 10SM CLR 27/21 A2985 RMK AO2 LTG DSNT E SLP103 T02670211
KBEH 182053Z AUTO 29011G22KT 10SM CLR 26/22 A2984 RMK AO2 SLP101 T02610222 53007
KBEH 181953Z AUTO 19011G20KT 10SM CLR 28/22 A2981 RMK AO2 PK WND 19027/1923 SLP090 T02780217
KBEH 181853Z AUTO 16014G25KT 10SM CLR 26/21 A2978 RMK AO2 SLP080 T02560206
KBEH 181753Z AUTO 15010G18KT 10SM CLR 23/21 A2982 RMK AO2 SLP095 60017 T02330206 10239 20206 58028
KBEH 181729Z AUTO 15008KT 10SM FEW006 23/21 A2983 RMK AO2 T02280206
KBEH 181653Z AUTO 15009KT 10SM FEW100 21/20 A2983 RMK AO2 RAE43 TSB1555E10 SLP099 P0011 T02110200
KBEH 181646Z AUTO 15008KT 10SM SCT100 21/20 A2984 RMK AO2 RAE43 TSB1555E10 P0011 T02110200
KBEH 181624Z AUTO 00000KT 3SM VCTS RA BR SCT085 OVC110 21/20 A2990 RMK AO2 LTG DSNT ALQDS TSB1555E10 P0011 T02060200
KBEH 181611Z AUTO 14006KT 3SM +RA BR FEW010 BKN085 BKN110 21/19 A2990 RMK AO2 LTG DSNT ALQDS TSB1555E10 P0007 T02110194
KBEH 181608Z AUTO 15005KT 2 1/2SM +TSRA BR FEW010 BKN075 OVC110 21/19 A2991 RMK AO2 LTG DSNT ALQDS TSB1555 P0006 T02110194
KBEH 181601Z AUTO 24005KT 3SM +TSRA BR SCT010 BKN075 OVC110 21/19 A2993 RMK AO2 LTG DSNT ALQDS TSB1555 P0003 T02110194
KBEH 181553Z AUTO 29007KT 8SM VCTS -RA SCT010 SCT037 BKN055 21/19 A2992 RMK AO2 LTG DSNT ALQDS RAB1455 TSE08 SLP129 P0004 T02110194
KBEH 181542Z AUTO 28012G20KT 7SM VCTS -RA BKN012 BKN035 OVC110 21/19 A2993 RMK AO2 LTG DSNT ALQDS RAB1455 TSE08 P0003 T02110194
KBEH 181534Z AUTO 29007KT 6SM VCTS RA BR SCT014 BKN033 OVC110 21/19 A2992 RMK AO2 LTG DSNT ALQDS RAB1455 TSE08 P0003 T02110194
KBEH 181522Z AUTO 29011G21KT 10SM VCTS -RA SCT016 BKN026 OVC050 22/19 A2993 RMK AO2 LTG DSNT ALQDS RAB1455 TSE08 P0002 T02170194
KBEH 181514Z AUTO 30014G24KT 10SM -RA FEW021 SCT029 BKN038 22/19 A2993 RMK AO2 LTG DSNT ALQDS RAB1455 TSE08 P0002 T02170194
KBEH 181453Z AUTO 26007KT 10SM TS FEW038 SCT110 22/19 A2991 RMK AO2 LTG DSNT NE AND SW AND W RAE15B25E37 TSE13B53 PRESRR SLP124 P0000 60002 T02170189 53024
KBEH 181417Z AUTO 15003KT 10SM FEW060 BKN090 OVC110 23/19 A2984 RMK AO2 LTG DSNT ALQDS RAE15 TSE13 P0000 T02280189
KBEH 181353Z AUTO 22014G22KT 9SM -TSRA FEW018 BKN060 OVC075 23/21 A2986 RMK AO2 LTG DSNT ALQDS RAB30 TSB50 SLP108 P0002 T02330206
KBEH 181343Z AUTO 21011G18KT 190V250 10SM VCTS -RA FEW020 BKN033 OVC055 23/21 A2986 RMK AO2 LTG DSNT ALQDS RAB30 P0001 T02330206
KBEH 181253Z AUTO 17006KT 10SM CLR 23/21 A2983 RMK AO2 SLP097 T02330206
KBEH 181153Z AUTO 17006KT 10SM CLR 22/20 A2983 RMK AO2 SLP099 70002 T02170200 10217 20183 56012
KBEH 181053Z AUTO 17005KT 10SM CLR 21/19 A2984 RMK AO2 SLP100 T02060189
KBEH 180953Z AUTO 15004KT 10SM BKN042 21/19 A2985 RMK AO2 SLP105 T02060194
KBEH 180853Z AUTO 00000KT 8SM SCT044 19/18 A2987 RMK AO2 SLP111 T01940183 56008
KBEH 180753Z AUTO 18004KT 10SM CLR 21/19 A2987 RMK AO2 SLP111 T02060189
KBEH 180659Z AUTO 00000KT 3SM BR CLR 19/18 A2989 RMK AO2 T01890183
KBEH 180656Z AUTO 00000KT 1 1/2SM BR CLR 19/18 A2989 RMK AO2 T01940183
KBEH 180653Z AUTO 00000KT 3/4SM BR CLR 19/18 A2989 RMK AO2 SLP117 T01890183
KBEH 180635Z AUTO 00000KT 1/2SM FG CLR 19/18 A2989 RMK AO2 T01940183
KBEH 180631Z AUTO 00000KT 1 1/4SM BR CLR 19/18 A2989 RMK AO2 T01940183
KBEH 180553Z AUTO 19003KT 5SM BR CLR 20/19 A2990 RMK AO2 SLP120 T02000189 10244 20200 50000
KBEH 180546Z AUTO 00000KT 3SM BR CLR 20/19 A2990 RMK AO2 T02000189
KBEH 180537Z AUTO 00000KT 1 3/4SM BR CLR 20/19 A2990 RMK AO2 T02000189
KBEH 180529Z AUTO 00000KT 4SM BR CLR 20/19 A2990 RMK AO2 T02000189
KBEH 180521Z AUTO 00000KT 1 3/4SM BR CLR 20/19 A2990 RMK AO2 T02000189
KBEH 180453Z AUTO 00000KT 10SM CLR 22/19 A2990 RMK AO2 SLP121 T02170194 402610161
KBEH 180353Z AUTO 18004KT 10SM SCT030 BKN034 22/20 A2990 RMK AO2 SLP121 T02220200
KBEH 180253Z AUTO 12003KT 7SM SCT024 21/20 A2990 RMK AO2 SLP120 T02110200 51008
KBEH 180224Z AUTO 00000KT 3SM BR CLR 21/20 A2989 RMK AO2 T02110200
KBEH 180214Z AUTO 13004KT 2 1/2SM BR FEW030 21/20 A2989 RMK AO2 VIS 1 1/4V3 T02110200
KBEH 180153Z AUTO 00000KT 6SM BR FEW029 22/21 A2990 RMK AO2 LTG DSNT NE SLP119 T02170211
KBEH 180053Z AUTO 24004KT 10SM FEW031 23/21 A2988 RMK AO2 LTG DSNT NE SLP114 T02330211
KBEH 172353Z AUTO 26005KT 10SM SCT018 24/21 A2987 RMK AO2 SLP112 60000 T02440211 10261 20233 55003
KBEH 172348Z AUTO 27006KT 10SM SCT019 SCT033 24/21 A2987 RMK AO2
KBEH 172253Z AUTO 00000KT 10SM FEW018 BKN024 OVC120 26/22 A2988 RMK AO2 RAB05E16 SLP113 P0000 T02560222
KBEH 172153Z AUTO 00000KT 10SM FEW017 SCT038 BKN120 26/22 A2988 RMK AO2 SLP116 T02560222
KBEH 172053Z AUTO 00000KT 10SM FEW035 OVC100 26/22 A2989 RMK AO2 RAB00E11 SLP118 P0000 60000 T02560217 55018
KBEH 171953Z AUTO 00000KT 10SM FEW090 BKN110 26/22 A2988 RMK AO2 SLP114 T02560217
KBEH 171853Z AUTO 10004KT 10SM FEW037 25/22 A2990 RMK AO2 RAE41 SLP123 P0000 T02500217